Time,TemperatureF,DewpointF,PressureIn,WindDirection,WindDirectionDegrees,WindSpeedMPH,WindSpeedGustMPH,Humidity,HourlyPrecipIn,Conditions,Clouds,dailyrainin,SoftwareType,DateUTC
2017-07-20 00:07:00,65.4,64.2,30.24,SSE,162,0.0,0.0,96,0.00,,,0.00,Wunderground v.1.15,2017-07-20 04:07:00,
2017-07-20 00:17:00,65.1,63.9,30.24,SSE,162,0.0,0.0,96,0.00,,,0.00,Wunderground v.1.15,2017-07-20 04:17:00,
2017-07-20 00:27:00,64.8,63.6,30.24,SSE,162,0.0,0.0,96,0.00,,,0.00,Wunderground v.1.15,2017-07-20 04:27:00,
2017-07-20 00:37:00,64.6,63.4,30.24,SSE,162,0.0,0.0,96,0.00,,,0.00,Wunderground v.1.15,2017-07-20 04:37:00,
2017-07-20 00:47:00,64.3,63.1,30.24,SSE,162,0.0,0.0,96,0.00,,,0.00,Wunderground v.1.15,2017-07-20 04:47:00,
2017-07-20 00:57:00,64.1,63.2,30.24,SSE,162,0.0,0.0,97,0.00,,,0.00,Wunderground v.1.15,2017-07-20 04:57:00,
2017-07-20 01:07:00,63.8,62.9,30.24,SSE,162,0.0,0.0,97,0.00,,,0.00,Wunderground v.1.15,2017-07-20 05:07:00,
2017-07-20 01:17:00,63.6,62.7,30.24,SSE,162,0.0,0.0,97,0.00,,,0.00,Wunderground v.1.15,2017-07-20 05:17:00,
2017-07-20 01:27:00,63.3,62.4,30.24,SSE,162,0.0,0.0,97,0.00,,,0.00,Wunderground v.1.15,2017-07-20 05:27:00,
2017-07-20 01:37:00,63.0,62.1,30.24,SSE,162,0.0,0.0,97,0.00,,,0.00,Wunderground v.1.15,2017-07-20 05:37:00,
2017-07-20 01:47:00,62.9,62.0,30.24,SSE,162,0.0,0.0,97,0.00,,,0.00,Wunderground v.1.15,2017-07-20 05:47:00,
2017-07-20 01:57:00,62.6,61.7,30.23,SSE,162,0.0,0.0,97,0.00,,,0.00,Wunderground v.1.15,2017-07-20 05:57:00,
2017-07-20 02:07:00,62.6,61.7,30.23,SSE,162,0.0,0.0,97,0.00,,,0.00,Wunderground v.1.15,2017-07-20 06:07:00,
2017-07-20 02:17:00,62.4,61.5,30.23,SSE,162,0.0,0.0,97,0.00,,,0.00,Wunderground v.1.15,2017-07-20 06:17:00,
2017-07-20 02:27:00,62.3,61.4,30.23,SSE,162,0.0,0.0,97,0.00,,,0.00,Wunderground v.1.15,2017-07-20 06:27:00,
2017-07-20 02:37:00,62.0,61.1,30.23,SSE,162,0.0,0.0,97,0.00,,,0.00,Wunderground v.1.15,2017-07-20 06:37:00,
2017-07-20 02:47:00,61.8,60.9,30.23,SSE,162,0.0,0.0,97,0.00,,,0.00,Wunderground v.1.15,2017-07-20 06:47:00,
2017-07-20 02:57:00,61.5,60.6,30.22,SSE,162,0.0,0.0,97,0.00,,,0.00,Wunderground v.1.15,2017-07-20 06:57:00,
2017-07-20 03:07:00,61.6,61.0,30.22,SSE,162,0.0,0.0,98,0.00,,,0.00,Wunderground v.1.15,2017-07-20 07:07:00,
2017-07-20 03:17:00,61.4,60.8,30.22,SSE,162,0.0,0.0,98,0.00,,,0.00,Wunderground v.1.15,2017-07-20 07:17:00,
2017-07-20 03:27:00,61.2,60.6,30.22,SSE,162,0.0,0.0,98,0.00,,,0.00,Wunderground v.1.15,2017-07-20 07:27:00,
2017-07-20 03:37:00,60.9,60.0,30.22,SSE,162,0.0,0.0,97,0.00,,,0.00,Wunderground v.1.15,2017-07-20 07:37:00,
2017-07-20 03:47:00,60.8,59.9,30.22,SSE,162,0.0,0.0,97,0.00,,,0.00,Wunderground v.1.15,2017-07-20 07:47:00,
2017-07-20 03:57:00,60.5,59.9,30.21,SSE,162,0.0,0.0,98,0.00,,,0.00,Wunderground v.1.15,2017-07-20 07:57:00,
2017-07-20 04:07:00,60.5,59.9,30.22,SSE,162,0.0,0.0,98,0.00,,,0.00,Wunderground v.1.15,2017-07-20 08:07:00,
2017-07-20 04:17:00,60.4,59.8,30.21,SSE,162,0.0,0.0,98,0.00,,,0.00,Wunderground v.1.15,2017-07-20 08:17:00,
2017-07-20 04:27:00,60.3,59.7,30.21,SSE,162,0.0,0.0,98,0.00,,,0.00,Wunderground v.1.15,2017-07-20 08:27:00,
2017-07-20 04:37:00,60.0,59.4,30.21,SSE,162,0.0,0.0,98,0.00,,,0.00,Wunderground v.1.15,2017-07-20 08:37:00,
2017-07-20 04:47:00,60.1,59.5,30.21,SSE,162,0.0,0.0,98,0.00,,,0.00,Wunderground v.1.15,2017-07-20 08:47:00,
2017-07-20 04:57:00,59.9,59.3,30.21,SSE,162,0.0,0.0,98,0.00,,,0.00,Wunderground v.1.15,2017-07-20 08:57:00,
2017-07-20 05:07:00,59.9,59.3,30.21,SSE,162,0.0,0.0,98,0.00,,,0.00,Wunderground v.1.15,2017-07-20 09:07:00,
2017-07-20 05:17:00,59.8,59.2,30.21,SSE,162,0.0,0.0,98,0.00,,,0.00,Wunderground v.1.15,2017-07-20 09:17:00,
2017-07-20 05:27:00,59.8,59.2,30.22,SSE,162,0.0,0.0,98,0.00,,,0.00,Wunderground v.1.15,2017-07-20 09:27:00,
2017-07-20 05:37:00,59.5,58.9,30.22,SSE,162,0.0,0.0,98,0.00,,,0.00,Wunderground v.1.15,2017-07-20 09:37:00,
2017-07-20 05:47:00,59.3,58.7,30.22,SSE,162,0.0,0.0,98,0.00,,,0.00,Wunderground v.1.15,2017-07-20 09:47:00,
2017-07-20 05:57:00,59.0,58.4,30.22,SSE,162,0.0,0.0,98,0.00,,,0.00,Wunderground v.1.15,2017-07-20 09:57:00,
2017-07-20 06:07:00,58.9,58.3,30.22,SSE,162,0.0,0.0,98,0.00,,,0.00,Wunderground v.1.15,2017-07-20 10:07:00,
2017-07-20 06:17:00,58.8,58.2,30.23,SSE,162,0.0,0.0,98,0.00,,,0.00,Wunderground v.1.15,2017-07-20 10:17:00,
2017-07-20 06:27:00,58.7,58.1,30.23,SSE,162,0.0,0.0,98,0.00,,,0.00,Wunderground v.1.15,2017-07-20 10:27:00,
2017-07-20 06:37:00,58.5,57.9,30.24,SSE,162,0.0,0.0,98,0.00,,,0.00,Wunderground v.1.15,2017-07-20 10:37:00,
2017-07-20 06:47:00,58.6,58.0,30.24,SSE,162,0.0,0.0,98,0.00,,,0.00,Wunderground v.1.15,2017-07-20 10:47:00,
2017-07-20 06:58:00,58.5,57.9,30.24,SSE,162,0.0,0.0,98,0.00,,,0.00,Wunderground v.1.15,2017-07-20 10:58:00,
2017-07-20 07:07:00,58.6,58.0,30.24,SSE,162,0.0,0.0,98,0.00,,,0.00,Wunderground v.1.15,2017-07-20 11:07:00,
2017-07-20 07:17:00,58.9,58.3,30.24,SSE,162,0.0,0.0,98,0.00,,,0.00,Wunderground v.1.15,2017-07-20 11:17:00,
2017-07-20 07:27:00,59.2,58.6,30.24,SSE,162,0.0,0.0,98,0.00,,,0.00,Wunderground v.1.15,2017-07-20 11:27:00,
2017-07-20 07:37:00,59.7,59.4,30.24,SSE,162,0.0,0.0,99,0.00,,,0.00,Wunderground v.1.15,2017-07-20 11:37:00,
2017-07-20 07:47:00,60.4,59.8,30.24,SSE,162,0.0,0.0,98,0.00,,,0.00,Wunderground v.1.15,2017-07-20 11:47:00,
2017-07-20 07:57:00,62.4,62.1,30.24,SSE,162,0.0,0.0,99,0.00,,,0.00,Wunderground v.1.15,2017-07-20 11:57:00,
2017-07-20 08:07:00,63.6,63.0,30.24,SSE,162,0.0,0.0,98,0.00,,,0.00,Wunderground v.1.15,2017-07-20 12:07:00,
2017-07-20 08:17:00,66.4,64.0,30.24,SSE,162,0.0,0.0,92,0.00,,,0.00,Wunderground v.1.15,2017-07-20 12:17:00,
2017-07-20 08:27:00,67.7,64.7,30.24,SSE,162,0.0,0.0,90,0.00,,,0.00,Wunderground v.1.15,2017-07-20 12:27:00,
2017-07-20 08:37:00,68.4,65.0,30.25,SSE,162,0.0,0.0,89,0.00,,,0.00,Wunderground v.1.15,2017-07-20 12:37:00,
2017-07-20 08:47:00,67.9,65.2,30.25,SSE,162,0.0,0.0,91,0.00,,,0.00,Wunderground v.1.15,2017-07-20 12:47:00,
2017-07-20 08:57:00,69.7,66.6,30.25,SSE,162,0.0,0.0,90,0.00,,,0.00,Wunderground v.1.15,2017-07-20 12:57:00,
2017-07-20 09:07:00,70.7,67.0,30.25,SSE,162,0.0,0.0,88,0.00,,,0.00,Wunderground v.1.15,2017-07-20 13:07:00,
2017-07-20 09:17:00,71.1,67.7,30.25,SSE,162,0.0,0.0,89,0.00,,,0.00,Wunderground v.1.15,2017-07-20 13:17:00,
2017-07-20 09:27:00,72.4,68.3,30.25,South,169,0.0,0.0,87,0.00,,,0.00,Wunderground v.1.15,2017-07-20 13:27:00,
2017-07-20 09:37:00,73.4,70.0,30.25,SSE,167,0.0,0.0,89,0.00,,,0.00,Wunderground v.1.15,2017-07-20 13:37:00,
2017-07-20 09:57:00,76.8,70.5,30.24,SSE,162,0.0,0.0,81,0.00,,,0.00,Wunderground v.1.15,2017-07-20 13:57:00,
2017-07-20 10:07:00,76.8,70.9,30.25,SE,141,0.0,0.0,82,0.00,,,0.00,Wunderground v.1.15,2017-07-20 14:07:00,
2017-07-20 10:17:00,77.9,70.9,30.24,SE,134,0.0,0.0,79,0.00,,,0.00,Wunderground v.1.15,2017-07-20 14:17:00,
2017-07-20 10:27:00,80.1,71.5,30.24,South,184,0.0,0.0,75,0.00,,,0.00,Wunderground v.1.15,2017-07-20 14:27:00,
2017-07-20 10:37:00,80.9,70.6,30.24,South,183,0.0,0.0,71,0.00,,,0.00,Wunderground v.1.15,2017-07-20 14:37:00,
2017-07-20 10:47:00,81.2,70.5,30.24,East,80,1.0,1.0,70,0.00,,,0.00,Wunderground v.1.15,2017-07-20 14:47:00,
2017-07-20 10:57:00,81.9,71.6,30.25,West,266,1.0,1.0,71,0.00,,,0.00,Wunderground v.1.15,2017-07-20 14:57:00,
2017-07-20 11:07:00,82.9,70.4,30.24,ENE,66,0.0,0.0,66,0.00,,,0.00,Wunderground v.1.15,2017-07-20 15:07:00,
2017-07-20 11:17:00,82.6,69.6,30.24,East,101,0.0,0.0,65,0.00,,,0.00,Wunderground v.1.15,2017-07-20 15:17:00,
2017-07-20 11:27:00,83.5,69.6,30.24,ENE,70,0.0,3.0,63,0.00,,,0.00,Wunderground v.1.15,2017-07-20 15:27:00,
2017-07-20 11:37:00,83.5,69.6,30.23,West,281,0.0,0.0,63,0.00,,,0.00,Wunderground v.1.15,2017-07-20 15:37:00,
2017-07-20 11:47:00,83.5,70.0,30.24,East,80,0.0,1.0,64,0.00,,,0.00,Wunderground v.1.15,2017-07-20 15:47:00,
2017-07-20 11:57:00,83.2,67.9,30.23,West,281,1.0,1.0,60,0.00,,,0.00,Wunderground v.1.15,2017-07-20 15:57:00,
2017-07-20 12:07:00,83.1,68.7,30.23,East,82,1.0,3.0,62,0.00,,,0.00,Wunderground v.1.15,2017-07-20 16:07:00,
2017-07-20 12:17:00,82.8,65.5,30.22,East,96,1.0,1.0,56,0.00,,,0.00,Wunderground v.1.15,2017-07-20 16:17:00,
2017-07-20 12:27:00,84.3,68.9,30.23,ESE,106,1.0,1.0,60,0.00,,,0.00,Wunderground v.1.15,2017-07-20 16:27:00,
2017-07-20 12:37:00,85.2,68.2,30.22,WSW,237,1.0,1.0,57,0.00,,,0.00,Wunderground v.1.15,2017-07-20 16:37:00,
2017-07-20 12:47:00,85.9,72.3,30.22,West,262,0.0,1.0,64,0.00,,,0.00,Wunderground v.1.15,2017-07-20 16:47:00,
2017-07-20 12:58:00,84.6,63.9,30.22,SE,127,1.0,2.0,50,0.00,,,0.00,Wunderground v.1.15,2017-07-20 16:58:00,
2017-07-20 13:07:00,84.3,65.8,30.22,SW,224,0.0,0.0,54,0.00,,,0.00,Wunderground v.1.15,2017-07-20 17:07:00,
2017-07-20 13:17:00,84.7,66.7,30.22,WNW,294,0.0,0.0,55,0.00,,,0.00,Wunderground v.1.15,2017-07-20 17:17:00,
2017-07-20 13:27:00,86.0,67.4,30.22,WNW,294,0.0,0.0,54,0.00,,,0.00,Wunderground v.1.15,2017-07-20 17:27:00,
2017-07-20 13:37:00,85.4,67.9,30.21,East,79,0.0,1.0,56,0.00,,,0.00,Wunderground v.1.15,2017-07-20 17:37:00,
2017-07-20 13:47:00,85.7,67.7,30.21,South,183,0.0,1.0,55,0.00,,,0.00,Wunderground v.1.15,2017-07-20 17:47:00,
2017-07-20 13:57:00,86.7,67.0,30.21,ESE,112,0.0,0.0,52,0.00,,,0.00,Wunderground v.1.15,2017-07-20 17:57:00,
2017-07-20 14:07:00,86.4,66.7,30.20,East,93,0.0,0.0,52,0.00,,,0.00,Wunderground v.1.15,2017-07-20 18:07:00,
2017-07-20 14:17:00,85.6,65.4,30.20,NW,306,0.0,0.0,51,0.00,,,0.00,Wunderground v.1.15,2017-07-20 18:17:00,
2017-07-20 14:27:00,84.1,67.7,30.19,NW,305,0.0,0.0,58,0.00,,,0.00,Wunderground v.1.15,2017-07-20 18:27:00,
2017-07-20 14:37:00,84.6,65.6,30.19,WNW,293,0.0,0.0,53,0.00,,,0.00,Wunderground v.1.15,2017-07-20 18:37:00,
2017-07-20 14:47:00,85.3,65.7,30.18,WNW,284,0.0,0.0,52,0.00,,,0.00,Wunderground v.1.15,2017-07-20 18:47:00,
2017-07-20 14:57:00,85.8,64.4,30.18,West,275,0.0,0.0,49,0.00,,,0.00,Wunderground v.1.15,2017-07-20 18:57:00,
2017-07-20 15:07:00,85.4,63.5,30.18,NW,319,0.0,0.0,48,0.00,,,0.00,Wunderground v.1.15,2017-07-20 19:07:00,
2017-07-20 15:17:00,84.4,65.4,30.18,West,281,0.0,0.0,53,0.00,,,0.00,Wunderground v.1.15,2017-07-20 19:17:00,
2017-07-20 15:27:00,83.9,64.4,30.18,ENE,78,0.0,0.0,52,0.00,,,0.00,Wunderground v.1.15,2017-07-20 19:27:00,
2017-07-20 15:37:00,83.9,64.9,30.18,ENE,78,0.0,0.0,53,0.00,,,0.00,Wunderground v.1.15,2017-07-20 19:37:00,
2017-07-20 15:47:00,83.3,64.4,30.17,SE,140,0.0,0.0,53,0.00,,,0.00,Wunderground v.1.15,2017-07-20 19:47:00,
2017-07-20 15:57:00,82.9,63.5,30.17,West,281,0.0,0.0,52,0.00,,,0.00,Wunderground v.1.15,2017-07-20 19:57:00,
2017-07-20 16:07:00,82.8,62.8,30.17,ESE,108,0.0,0.0,51,0.00,,,0.00,Wunderground v.1.15,2017-07-20 20:07:00,
2017-07-20 16:17:00,82.7,64.4,30.16,ESE,108,0.0,0.0,54,0.00,,,0.00,Wunderground v.1.15,2017-07-20 20:17:00,
2017-07-20 16:27:00,82.3,63.5,30.16,ESE,108,0.0,0.0,53,0.00,,,0.00,Wunderground v.1.15,2017-07-20 20:27:00,
2017-07-20 16:37:00,82.2,65.4,30.16,WNW,302,0.0,0.0,57,0.00,,,0.00,Wunderground v.1.15,2017-07-20 20:37:00,
2017-07-20 16:47:00,82.0,63.2,30.15,WNW,302,0.0,0.0,53,0.00,,,0.00,Wunderground v.1.15,2017-07-20 20:47:00,
2017-07-20 16:57:00,81.5,64.8,30.15,SSE,149,0.0,0.0,57,0.00,,,0.00,Wunderground v.1.15,2017-07-20 20:57:00,
2017-07-20 17:07:00,81.2,65.0,30.15,SSE,149,0.0,0.0,58,0.00,,,0.00,Wunderground v.1.15,2017-07-20 21:07:00,
2017-07-20 17:17:00,80.9,63.2,30.14,SSE,149,0.0,0.0,55,0.00,,,0.00,Wunderground v.1.15,2017-07-20 21:17:00,
2017-07-20 17:27:00,80.7,68.3,30.14,SSE,149,0.0,0.0,66,0.00,,,0.00,Wunderground v.1.15,2017-07-20 21:27:00,
2017-07-20 17:37:00,80.1,64.5,30.13,SSE,149,0.0,0.0,59,0.00,,,0.00,Wunderground v.1.15,2017-07-20 21:37:00,
2017-07-20 17:47:00,79.9,65.2,30.12,SSE,149,0.0,0.0,61,0.00,,,0.00,Wunderground v.1.15,2017-07-20 21:47:00,
2017-07-20 17:57:00,79.4,65.7,30.12,SSE,149,0.0,0.0,63,0.00,,,0.00,Wunderground v.1.15,2017-07-20 21:57:00,
2017-07-20 18:07:00,78.9,65.2,30.12,SSE,148,0.0,0.0,63,0.00,,,0.00,Wunderground v.1.15,2017-07-20 22:07:00,
2017-07-20 18:17:00,78.6,68.0,30.12,NNW,346,0.0,0.0,70,0.00,,,0.00,Wunderground v.1.15,2017-07-20 22:17:00,
2017-07-20 18:27:00,77.9,67.7,30.12,NNW,346,0.0,0.0,71,0.00,,,0.00,Wunderground v.1.15,2017-07-20 22:27:00,
2017-07-20 18:37:00,77.5,67.4,30.12,North,350,0.0,0.0,71,0.00,,,0.00,Wunderground v.1.15,2017-07-20 22:37:00,
2017-07-20 18:47:00,76.9,67.2,30.12,North,350,0.0,0.0,72,0.00,,,0.00,Wunderground v.1.15,2017-07-20 22:47:00,
2017-07-20 18:57:00,76.7,67.4,30.12,North,351,0.0,0.0,73,0.00,,,0.00,Wunderground v.1.15,2017-07-20 22:57:00,
2017-07-20 19:07:00,76.2,68.1,30.12,North,350,0.0,0.0,76,0.00,,,0.00,Wunderground v.1.15,2017-07-20 23:07:00,
2017-07-20 19:17:00,75.7,68.7,30.12,North,350,0.0,0.0,79,0.00,,,0.00,Wunderground v.1.15,2017-07-20 23:17:00,
2017-07-20 19:27:00,75.2,68.6,30.12,North,350,0.0,0.0,80,0.00,,,0.00,Wunderground v.1.15,2017-07-20 23:27:00,
2017-07-20 19:37:00,74.7,68.8,30.12,North,350,0.0,0.0,82,0.00,,,0.00,Wunderground v.1.15,2017-07-20 23:37:00,
2017-07-20 19:47:00,74.1,68.3,30.12,North,350,0.0,0.0,82,0.00,,,0.00,Wunderground v.1.15,2017-07-20 23:47:00,
2017-07-20 19:57:00,73.4,67.9,30.12,North,350,0.0,0.0,83,0.00,,,0.00,Wunderground v.1.15,2017-07-20 23:57:00,
2017-07-20 20:07:00,72.9,67.8,30.13,North,350,0.0,0.0,84,0.00,,,0.00,Wunderground v.1.15,2017-07-21 00:07:00,
2017-07-20 20:17:00,72.1,67.7,30.13,North,350,0.0,0.0,86,0.00,,,0.00,Wunderground v.1.15,2017-07-21 00:17:00,
2017-07-20 20:27:00,71.3,66.9,30.13,North,350,0.0,0.0,86,0.00,,,0.00,Wunderground v.1.15,2017-07-21 00:27:00,
2017-07-20 20:37:00,70.6,66.5,30.13,North,350,0.0,0.0,87,0.00,,,0.00,Wunderground v.1.15,2017-07-21 00:37:00,
2017-07-20 20:47:00,70.0,66.3,30.13,North,350,0.0,0.0,88,0.00,,,0.00,Wunderground v.1.15,2017-07-21 00:47:00,
2017-07-20 20:57:00,69.5,66.1,30.14,North,350,0.0,0.0,89,0.00,,,0.00,Wunderground v.1.15,2017-07-21 00:57:00,
2017-07-20 21:07:00,69.1,66.0,30.14,North,350,0.0,0.0,90,0.00,,,0.00,Wunderground v.1.15,2017-07-21 01:07:00,
2017-07-20 21:17:00,68.6,65.5,30.14,North,350,0.0,0.0,90,0.00,,,0.00,Wunderground v.1.15,2017-07-21 01:17:00,
2017-07-20 21:27:00,68.3,65.6,30.15,North,350,0.0,0.0,91,0.00,,,0.00,Wunderground v.1.15,2017-07-21 01:27:00,
2017-07-20 21:37:00,68.1,65.7,30.15,North,350,0.0,0.0,92,0.00,,,0.00,Wunderground v.1.15,2017-07-21 01:37:00,
2017-07-20 21:47:00,67.8,65.4,30.16,North,350,0.0,0.0,92,0.00,,,0.00,Wunderground v.1.15,2017-07-21 01:47:00,
2017-07-20 21:58:00,67.4,65.3,30.16,North,350,0.0,0.0,93,0.00,,,0.00,Wunderground v.1.15,2017-07-21 01:58:00,
2017-07-20 22:07:00,67.2,65.1,30.17,North,350,0.0,0.0,93,0.00,,,0.00,Wunderground v.1.15,2017-07-21 02:07:00,
2017-07-20 22:17:00,66.9,64.8,30.17,North,350,0.0,0.0,93,0.00,,,0.00,Wunderground v.1.15,2017-07-21 02:17:00,
2017-07-20 22:27:00,66.7,64.9,30.18,North,350,0.0,0.0,94,0.00,,,0.00,Wunderground v.1.15,2017-07-21 02:27:00,
2017-07-20 22:37:00,66.6,64.8,30.18,North,350,0.0,0.0,94,0.00,,,0.00,Wunderground v.1.15,2017-07-21 02:37:00,
2017-07-20 22:47:00,66.7,65.2,30.18,North,350,0.0,0.0,95,0.00,,,0.00,Wunderground v.1.15,2017-07-21 02:47:00,
2017-07-20 22:57:00,66.7,65.2,30.18,North,350,0.0,0.0,95,0.00,,,0.00,Wunderground v.1.15,2017-07-21 02:57:00,
2017-07-20 23:07:00,66.7,65.2,30.18,North,350,0.0,0.0,95,0.00,,,0.00,Wunderground v.1.15,2017-07-21 03:07:00,
2017-07-20 23:17:00,66.5,64.7,30.18,North,350,0.0,0.0,94,0.00,,,0.00,Wunderground v.1.15,2017-07-21 03:17:00,
2017-07-20 23:27:00,66.1,64.6,30.18,NNW,348,0.0,0.0,95,0.00,,,0.00,Wunderground v.1.15,2017-07-21 03:27:00,